Time;durP1;ratioP1;P1;durP2;ratioP2;P2;SDS_P1;SDS_P2;PMS_P1;PMS_P2;Temp;Humidity;BMP_temperature;BMP_pressure;BME280_temperature;BME280_humidity;BME280_pressure;Samples;Min_cycle;Max_cycle;Signal;HPM_P1;HPM_P2
2022/10/27 00:04:26;;;;;;;12.88;5.35;;;15.90;99.90;;;;;;10086882;28;20051;-65
2022/10/27 00:09:16;;;;;;;9.82;4.45;;;15.90;99.90;;;;;;10086612;28;20396;-63
2022/10/27 00:14:07;;;;;;;8.25;5.43;;;15.90;99.90;;;;;;10086327;28;20029;-63
2022/10/27 00:18:58;;;;;;;13.15;5.40;;;15.80;99.90;;;;;;10092200;28;20116;-64
2022/10/27 00:23:50;;;;;;;10.05;5.10;;;15.80;99.90;;;;;;10092015;28;20045;-64
2022/10/27 00:28:40;;;;;;;7.47;4.50;;;15.80;99.90;;;;;;10091552;28;20075;-65
2022/10/27 00:33:31;;;;;;;9.48;5.05;;;15.80;99.90;;;;;;10091726;28;20388;-65
2022/10/27 00:38:22;;;;;;;8.35;4.32;;;15.70;99.90;;;;;;10090538;28;20517;-65
2022/10/27 00:43:30;;;;;;;9.20;4.55;;;15.70;99.90;;;;;;10092423;28;20039;-64
2022/10/27 00:48:24;;;;;;;8.48;4.30;;;15.70;99.90;;;;;;10085343;28;20033;-64
2022/10/27 00:53:15;;;;;;;5.35;3.50;;;15.60;99.90;;;;;;10084022;28;20029;-64
2022/10/27 00:58:10;;;;;;;8.95;4.30;;;15.50;99.90;;;;;;10084801;28;20557;-64
2022/10/27 01:03:01;;;;;;;6.10;4.57;;;15.70;99.90;;;;;;10085199;28;20040;-65
2022/10/27 01:07:55;;;;;;;9.65;4.55;;;15.60;99.90;;;;;;10083082;28;20076;-65
2022/10/27 01:12:46;;;;;;;8.77;5.03;;;15.50;99.90;;;;;;10085618;28;20017;-65
2022/10/27 01:18:07;;;;;;;10.43;5.15;;;15.40;99.90;;;;;;10087237;28;20369;-64
2022/10/27 01:23:24;;;;;;;10.18;4.75;;;15.40;99.90;;;;;;10090261;28;20407;-65
2022/10/27 01:28:41;;;;;;;9.63;4.82;;;15.30;99.90;;;;;;10093306;28;20136;-64
2022/10/27 01:33:48;;;;;;;9.85;4.32;;;15.30;99.90;;;;;;10089303;28;20400;-65
2022/10/27 01:38:56;;;;;;;13.35;4.85;;;15.30;99.90;;;;;;10091481;28;20032;-64
2022/10/27 01:43:51;;;;;;;8.23;4.38;;;15.20;99.90;;;;;;10086687;28;20284;-65
2022/10/27 01:48:42;;;;;;;12.45;6.35;;;15.20;99.90;;;;;;10087848;28;20078;-63
2022/10/27 01:53:38;;;;;;;7.75;3.83;;;15.20;99.90;;;;;;10089274;28;20071;-64
2022/10/27 01:58:38;;;;;;;7.53;3.75;;;15.20;99.90;;;;;;10092664;28;20226;-65
2022/10/27 02:03:55;;;;;;;6.78;3.80;;;15.20;99.90;;;;;;10100248;28;20037;-64
2022/10/27 02:08:58;;;;;;;5.03;2.42;;;15.00;99.90;;;;;;10095818;28;20041;-64
2022/10/27 02:13:49;;;;;;;5.82;2.50;;;15.10;99.90;;;;;;10093714;28;20059;-64
2022/10/27 02:18:55;;;;;;;5.22;2.67;;;15.00;99.90;;;;;;10091104;28;20256;-64
2022/10/27 02:23:46;;;;;;;5.72;2.78;;;15.10;99.90;;;;;;10091983;28;20444;-65
2022/10/27 02:29:00;;;;;;;8.65;3.13;;;15.00;99.90;;;;;;10089645;28;20041;-64
2022/10/27 02:33:52;;;;;;;5.20;3.05;;;15.00;99.90;;;;;;10089824;28;20024;-64
2022/10/27 02:38:42;;;;;;;6.82;3.45;;;15.00;99.90;;;;;;10090417;28;20078;-64
2022/10/27 02:43:33;;;;;;;6.82;3.65;;;14.90;99.90;;;;;;10088252;28;20086;-64
2022/10/27 02:48:23;;;;;;;5.38;3.45;;;14.90;99.90;;;;;;10089058;28;20025;-64
2022/10/27 02:53:14;;;;;;;6.03;3.95;;;14.90;99.90;;;;;;10090553;28;20036;-62
2022/10/27 02:58:05;;;;;;;7.10;3.67;;;14.90;99.90;;;;;;10088483;28;20498;-64
2022/10/27 03:02:55;;;;;;;8.45;4.28;;;14.90;99.90;;;;;;10089325;28;20739;-64
2022/10/27 03:07:46;;;;;;;9.02;3.58;;;14.80;99.90;;;;;;10085187;28;20149;-63
2022/10/27 03:12:36;;;;;;;9.35;4.28;;;14.70;99.90;;;;;;10089344;28;20407;-63
2022/10/27 03:17:27;;;;;;;9.23;3.67;;;14.70;99.90;;;;;;10088431;28;20025;-64
2022/10/27 03:22:18;;;;;;;5.68;4.03;;;14.70;99.90;;;;;;10089202;28;20059;-64
2022/10/27 03:27:08;;;;;;;9.57;4.93;;;14.70;99.90;;;;;;10087919;28;20241;-64
2022/10/27 03:31:59;;;;;;;12.32;4.25;;;14.70;99.90;;;;;;10088393;28;20032;-64
2022/10/27 03:36:49;;;;;;;5.95;3.20;;;14.70;99.90;;;;;;10086257;28;20029;-63
2022/10/27 03:41:40;;;;;;;4.47;2.92;;;14.50;99.90;;;;;;10086787;28;20045;-63
2022/10/27 03:46:31;;;;;;;5.85;2.42;;;14.60;99.90;;;;;;10086547;28;20400;-64
2022/10/27 03:51:22;;;;;;;9.10;2.75;;;14.60;99.90;;;;;;10086736;28;20053;-64
2022/10/27 03:56:15;;;;;;;6.13;3.33;;;14.50;99.90;;;;;;10085272;28;20109;-64
2022/10/27 04:01:06;;;;;;;5.90;3.30;;;14.50;99.90;;;;;;10084736;28;20040;-64
2022/10/27 04:05:57;;;;;;;9.73;3.53;;;14.40;99.90;;;;;;10086598;28;20037;-64
2022/10/27 04:10:48;;;;;;;9.50;3.67;;;14.40;99.90;;;;;;10086224;28;20129;-64
2022/10/27 04:15:38;;;;;;;6.82;4.03;;;14.40;99.90;;;;;;10086135;28;20264;-64
2022/10/27 04:20:29;;;;;;;4.88;3.03;;;14.40;99.90;;;;;;10085025;28;20060;-65
2022/10/27 04:25:20;;;;;;;5.70;3.75;;;14.40;99.90;;;;;;10086014;28;20099;-64
2022/10/27 04:30:11;;;;;;;5.55;3.00;;;14.30;99.90;;;;;;10085082;28;20029;-65
2022/10/27 04:35:01;;;;;;;4.35;3.15;;;14.30;99.90;;;;;;10086003;28;20502;-65
2022/10/27 04:39:52;;;;;;;6.07;3.17;;;14.20;99.90;;;;;;10086012;28;20044;-64
2022/10/27 04:44:43;;;;;;;6.88;4.15;;;14.20;99.90;;;;;;10085770;28;20040;-64
2022/10/27 04:49:33;;;;;;;6.80;3.15;;;13.90;99.90;;;;;;10086271;28;20032;-64
2022/10/27 04:54:24;;;;;;;6.72;3.90;;;14.20;99.90;;;;;;10091351;28;20033;-63
2022/10/27 04:59:14;;;;;;;7.05;3.17;;;14.20;99.90;;;;;;10091796;28;20177;-63
2022/10/27 05:04:05;;;;;;;10.98;2.85;;;14.10;99.90;;;;;;10092056;28;20031;-65
2022/10/27 05:08:56;;;;;;;6.60;2.90;;;14.00;99.90;;;;;;10091677;28;20049;-63
2022/10/27 05:13:50;;;;;;;5.57;2.83;;;14.00;99.90;;;;;;10091010;28;20163;-64
2022/10/27 05:18:41;;;;;;;6.85;3.28;;;14.00;99.90;;;;;;10088742;28;20021;-64
2022/10/27 05:23:31;;;;;;;5.07;3.13;;;14.10;99.90;;;;;;10086090;28;20048;-64
2022/10/27 05:28:22;;;;;;;6.80;3.63;;;14.00;99.90;;;;;;10095394;28;20433;-65
2022/10/27 05:33:14;;;;;;;5.05;3.63;;;14.00;99.90;;;;;;10096709;28;20056;-64
2022/10/27 05:38:04;;;;;;;5.80;3.72;;;14.00;99.90;;;;;;10098039;28;20032;-64
2022/10/27 05:42:55;;;;;;;8.55;3.88;;;13.90;99.90;;;;;;10095917;28;20052;-66
2022/10/27 05:47:46;;;;;;;9.68;4.35;;;14.10;99.90;;;;;;10091926;28;20071;-65
2022/10/27 05:52:36;;;;;;;8.57;3.88;;;14.00;99.90;;;;;;10098177;28;20351;-64
2022/10/27 05:57:27;;;;;;;8.48;5.03;;;14.00;99.90;;;;;;10095905;28;20025;-64
2022/10/27 06:02:17;;;;;;;11.95;5.57;;;13.90;99.90;;;;;;10096276;28;20091;-65
2022/10/27 06:07:08;;;;;;;12.07;4.05;;;13.70;99.90;;;;;;10096224;28;20040;-64
2022/10/27 06:11:59;;;;;;;8.55;4.38;;;13.70;99.90;;;;;;10095067;28;20088;-64
2022/10/27 06:16:49;;;;;;;7.20;3.63;;;13.60;99.90;;;;;;10094573;28;20057;-65
2022/10/27 06:21:40;;;;;;;5.40;3.45;;;13.60;99.90;;;;;;10097112;28;20045;-65
2022/10/27 06:26:30;;;;;;;5.25;3.00;;;13.60;99.90;;;;;;10094846;28;20535;-64
2022/10/27 06:31:21;;;;;;;4.57;3.17;;;13.60;99.90;;;;;;10097799;28;20071;-63
2022/10/27 06:36:12;;;;;;;5.88;3.63;;;13.60;99.90;;;;;;10100083;28;20035;-63
2022/10/27 06:41:02;;;;;;;6.38;3.97;;;13.80;99.90;;;;;;10106299;28;20044;-63
2022/10/27 06:45:53;;;;;;;5.57;2.80;;;13.60;99.90;;;;;;10102360;28;20119;-65
2022/10/27 06:50:43;;;;;;;6.97;3.53;;;13.60;99.90;;;;;;10097257;28;20513;-64
2022/10/27 06:55:34;;;;;;;5.65;3.15;;;13.70;99.90;;;;;;10098135;28;20031;-63
2022/10/27 07:00:25;;;;;;;5.70;3.53;;;13.70;99.90;;;;;;10097719;28;20036;-63
2022/10/27 07:05:16;;;;;;;8.02;3.92;;;13.70;99.90;;;;;;10099810;28;20136;-63
2022/10/27 07:10:08;;;;;;;7.00;3.50;;;13.90;99.90;;;;;;10098893;28;20120;-65
2022/10/27 07:14:58;;;;;;;7.68;3.40;;;13.90;99.90;;;;;;10103637;28;20025;-65
2022/10/27 07:19:49;;;;;;;4.28;3.25;;;14.00;99.90;;;;;;10109035;28;20028;-64
2022/10/27 07:24:39;;;;;;;5.55;3.05;;;14.00;99.90;;;;;;10111277;28;20032;-62
2022/10/27 07:29:30;;;;;;;7.53;3.45;;;14.10;99.90;;;;;;10105229;28;20069;-64
2022/10/27 07:34:21;;;;;;;10.65;3.90;;;14.30;99.90;;;;;;10106901;28;20029;-68
2022/10/27 07:39:11;;;;;;;6.07;3.22;;;14.30;99.90;;;;;;10103021;28;20029;-65
2022/10/27 07:44:02;;;;;;;8.60;3.53;;;14.40;99.90;;;;;;10106386;28;20404;-65
2022/10/27 07:48:52;;;;;;;6.03;3.63;;;14.50;99.90;;;;;;10106269;28;20399;-68
2022/10/27 07:53:43;;;;;;;7.32;3.88;;;14.70;99.90;;;;;;10102563;28;20028;-64
2022/10/27 07:58:34;;;;;;;7.15;3.25;;;14.80;99.90;;;;;;10101875;28;20029;-71
2022/10/27 08:03:28;;;;;;;6.82;2.92;;;14.80;99.90;;;;;;10106790;28;20025;-63
2022/10/27 08:08:19;;;;;;;8.30;4.25;;;14.90;99.90;;;;;;10103355;28;20045;-64
2022/10/27 08:13:10;;;;;;;4.78;3.67;;;15.00;99.90;;;;;;10105939;28;20051;-63
2022/10/27 08:18:02;;;;;;;5.72;2.85;;;15.10;99.90;;;;;;10085073;28;20522;-62
2022/10/27 08:23:02;;;;;;;4.95;3.20;;;15.20;99.90;;;;;;10095518;28;20025;-63
2022/10/27 08:27:53;;;;;;;9.15;3.50;;;15.20;99.90;;;;;;10093523;28;20024;-62
2022/10/27 08:32:44;;;;;;;8.07;3.00;;;15.40;99.90;;;;;;10090507;28;20058;-64
2022/10/27 08:37:34;;;;;;;5.85;3.47;;;15.50;99.90;;;;;;10097069;28;20166;-63
2022/10/27 08:42:46;;;;;;;10.32;4.00;;;15.50;99.90;;;;;;10092787;28;20062;-64
2022/10/27 08:47:37;;;;;;;6.47;2.55;;;15.60;99.90;;;;;;10090973;28;20029;-65
2022/10/27 08:52:45;;;;;;;10.05;3.63;;;15.80;99.90;;;;;;10085402;28;20021;-65
2022/10/27 08:57:36;;;;;;;9.13;3.53;;;16.00;99.90;;;;;;10089241;28;20029;-65
2022/10/27 09:02:52;;;;;;;7.18;3.20;;;16.20;99.90;;;;;;10090045;28;20033;-64
2022/10/27 09:08:17;;;;;;;7.63;3.10;;;16.30;99.90;;;;;;10097501;28;20069;-64
2022/10/27 09:13:38;;;;;;;5.93;2.87;;;16.30;99.90;;;;;;10052843;28;20508;-63
2022/10/27 09:18:35;;;;;;;8.05;3.63;;;16.50;99.90;;;;;;10103274;28;20254;-63
2022/10/27 09:23:57;;;;;;;5.78;2.90;;;16.70;99.90;;;;;;10105733;28;20020;-62
2022/10/27 09:28:53;;;;;;;7.63;3.30;;;16.80;99.90;;;;;;10104161;28;20086;-65
2022/10/27 09:33:54;;;;;;;7.03;3.17;;;16.80;99.90;;;;;;10097940;28;20060;-65
2022/10/27 09:38:45;;;;;;;6.20;2.65;;;17.00;99.90;;;;;;10099835;28;20113;-62
2022/10/27 09:43:36;;;;;;;8.80;3.15;;;17.00;99.90;;;;;;10112540;28;20241;-61
2022/10/27 09:48:27;;;;;;;5.28;3.45;;;17.20;99.90;;;;;;10097088;28;20024;-62
2022/10/27 09:53:42;;;;;;;4.88;2.47;;;17.40;99.90;;;;;;10097072;28;20563;-62
2022/10/27 09:58:45;;;;;;;6.65;2.53;;;17.50;99.90;;;;;;10099279;28;20021;-64
2022/10/27 10:03:36;;;;;;;5.75;3.17;;;17.60;99.90;;;;;;10097019;28;20461;-64
2022/10/27 10:08:29;;;;;;;9.40;3.33;;;17.70;99.90;;;;;;10100420;28;20105;-65
2022/10/27 10:13:21;;;;;;;5.88;2.80;;;17.90;99.90;;;;;;10100101;28;20028;-64
2022/10/27 10:18:26;;;;;;;5.75;2.65;;;18.00;99.90;;;;;;10099983;28;20495;-65
2022/10/27 10:23:29;;;;;;;5.53;2.95;;;18.10;99.90;;;;;;10099431;28;20048;-63
2022/10/27 10:28:31;;;;;;;7.53;3.42;;;18.20;99.90;;;;;;10094104;28;20025;-63
2022/10/27 10:33:37;;;;;;;6.03;3.35;;;18.30;99.90;;;;;;10093517;28;20101;-64
2022/10/27 10:38:38;;;;;;;6.60;2.88;;;18.50;99.90;;;;;;10089753;28;20082;-63
2022/10/27 10:43:29;;;;;;;5.78;2.80;;;18.50;99.90;;;;;;10094941;28;20492;-63
2022/10/27 10:48:26;;;;;;;5.13;2.67;;;18.70;99.90;;;;;;10095774;28;20056;-66
2022/10/27 10:53:22;;;;;;;7.70;2.90;;;18.80;99.90;;;;;;10105930;28;20069;-65
2022/10/27 10:58:17;;;;;;;5.10;2.50;;;18.90;99.90;;;;;;10099640;28;20376;-64
2022/10/27 11:03:16;;;;;;;4.32;2.10;;;19.00;99.90;;;;;;10090374;28;20089;-65
2022/10/27 11:08:38;;;;;;;4.45;2.03;;;19.10;99.90;;;;;;10100466;28;20048;-65
2022/10/27 11:13:44;;;;;;;7.20;2.60;;;19.20;99.90;;;;;;10096037;28;20052;-64
2022/10/27 11:18:43;;;;;;;;;;;19.40;99.90;;;;;;10090851;28;20017;-65
2022/10/27 11:23:44;;;;;;;6.10;2.30;;;19.50;99.90;;;;;;10090510;28;19916;-65
2022/10/27 11:28:46;;;;;;;4.13;2.38;;;19.50;99.90;;;;;;10088465;28;20032;-66
2022/10/27 11:33:54;;;;;;;17.95;3.88;;;19.60;99.90;;;;;;10088160;28;20033;-66
2022/10/27 11:39:05;;;;;;;7.07;2.08;;;19.70;99.90;;;;;;10087165;28;20075;-66
2022/10/27 11:44:19;;;;;;;8.27;3.08;;;19.90;99.90;;;;;;10087304;28;20403;-64
2022/10/27 11:49:19;;;;;;;6.43;2.25;;;20.10;99.90;;;;;;10066338;28;20351;-65
2022/10/27 11:54:10;;;;;;;10.75;3.38;;;20.20;99.90;;;;;;10087282;28;20195;-64
2022/10/27 11:59:22;;;;;;;3.45;2.28;;;20.40;99.90;;;;;;10086687;28;20047;-66
2022/10/27 12:04:35;;;;;;;8.27;2.50;;;20.60;99.90;;;;;;10087838;28;20036;-65
2022/10/27 12:09:54;;;;;;;6.95;1.98;;;20.80;99.90;;;;;;10089770;28;20041;-65
2022/10/27 12:14:54;;;;;;;6.30;2.38;;;21.00;99.90;;;;;;10079205;28;20032;-64
2022/10/27 12:19:47;;;;;;;4.18;2.13;;;21.20;99.90;;;;;;10093094;28;20112;-64
2022/10/27 12:24:53;;;;;;;7.35;2.17;;;21.40;99.90;;;;;;10100398;28;20106;-66
2022/10/27 12:29:48;;;;;;;7.85;2.45;;;21.70;99.90;;;;;;10095913;28;20013;-65
2022/10/27 12:34:56;;;;;;;5.07;2.10;;;22.00;99.90;;;;;;10093411;28;20116;-64
2022/10/27 12:39:59;;;;;;;3.38;1.98;;;22.30;99.90;;;;;;10101033;28;20105;-64
2022/10/27 12:45:32;;;;;;;6.78;2.00;;;22.60;99.90;;;;;;10095883;28;20041;-65
2022/10/27 12:50:48;;;;;;;6.15;2.75;;;22.80;99.90;;;;;;10094585;28;20021;-63
2022/10/27 12:55:45;;;;;;;5.85;2.65;;;23.20;99.90;;;;;;10093188;28;20047;-65
2022/10/27 13:01:03;;;;;;;6.25;2.80;;;23.50;99.90;;;;;;10095323;28;20022;-66
2022/10/27 13:06:03;;;;;;;2.50;1.45;;;23.90;99.90;;;;;;10091550;28;20046;-63
2022/10/27 13:11:22;;;;;;;7.10;2.35;;;24.00;99.90;;;;;;10083381;28;20025;-62
2022/10/27 13:16:39;;;;;;;7.88;2.67;;;24.10;99.90;;;;;;10073204;28;20044;-64
2022/10/27 13:21:46;;;;;;;5.82;2.05;;;24.20;99.90;;;;;;10102983;28;20037;-62
2022/10/27 13:27:01;;;;;;;5.82;2.00;;;24.30;99.90;;;;;;10103591;28;20025;-62
2022/10/27 13:32:25;;;;;;;6.63;1.90;;;24.30;99.90;;;;;;10100986;28;20383;-63
2022/10/27 13:37:48;;;;;;;7.13;2.27;;;24.20;99.90;;;;;;10098939;28;20021;-62
2022/10/27 13:42:39;;;;;;;4.30;1.60;;;24.10;99.90;;;;;;10061054;28;20060;-63
2022/10/27 13:47:30;;;;;;;5.00;2.33;;;23.70;99.90;;;;;;10106497;28;20425;-63
2022/10/27 13:52:23;;;;;;;6.40;1.92;;;23.70;99.90;;;;;;10105507;28;20044;-62
2022/10/27 13:57:41;;;;;;;3.88;2.00;;;23.70;99.90;;;;;;10104750;28;20214;-62
2022/10/27 14:02:47;;;;;;;7.18;2.08;;;23.80;99.90;;;;;;10102297;28;20836;-65
2022/10/27 14:07:38;;;;;;;8.25;2.28;;;23.70;99.90;;;;;;10102293;28;20045;-63
2022/10/27 14:12:33;;;;;;;5.18;1.90;;;23.80;99.90;;;;;;10109129;28;20132;-63
2022/10/27 14:17:27;;;;;;;7.88;2.97;;;23.70;99.90;;;;;;10099870;28;20494;-64
2022/10/27 14:22:33;;;;;;;4.05;1.95;;;23.70;99.90;;;;;;10099023;28;20029;-65
2022/10/27 14:27:23;;;;;;;6.97;2.05;;;23.70;99.90;;;;;;10098711;28;20335;-63
2022/10/27 14:32:26;;;;;;;5.68;2.00;;;23.60;99.90;;;;;;10099797;28;20058;-63
2022/10/27 14:37:23;;;;;;;4.30;2.60;;;23.40;99.90;;;;;;10098219;28;20139;-63
2022/10/27 14:42:26;;;;;;;4.28;1.80;;;23.20;99.90;;;;;;10093983;28;20035;-64
2022/10/27 14:47:17;;;;;;;6.10;1.88;;;23.10;99.90;;;;;;10100625;28;20059;-62
2022/10/27 14:52:14;;;;;;;4.82;2.03;;;23.00;99.90;;;;;;10101861;28;20082;-64
2022/10/27 14:57:28;;;;;;;5.13;1.70;;;22.90;99.90;;;;;;10094552;28;20036;-65
2022/10/27 15:02:20;;;;;;;8.70;2.42;;;22.80;99.90;;;;;;10086239;28;20032;-65
2022/10/27 15:07:14;;;;;;;11.40;2.92;;;22.70;99.90;;;;;;10090394;28;20555;-68
2022/10/27 15:12:29;;;;;;;5.60;2.80;;;22.60;99.90;;;;;;10088371;28;20485;-64
2022/10/27 15:17:29;;;;;;;10.63;2.63;;;22.50;99.90;;;;;;10094507;28;20040;-64
2022/10/27 15:22:21;;;;;;;4.80;2.35;;;22.40;99.90;;;;;;10100275;28;20052;-64
2022/10/27 15:27:12;;;;;;;5.28;2.15;;;22.20;99.90;;;;;;10086738;28;20021;-64
2022/10/27 15:32:03;;;;;;;5.82;2.92;;;21.90;99.90;;;;;;10089659;28;20071;-62
2022/10/27 15:37:31;;;;;;;6.53;2.63;;;21.80;99.90;;;;;;10087927;28;20078;-63
2022/10/27 15:42:26;;;;;;;4.00;2.50;;;21.60;99.90;;;;;;10088541;28;20554;-63
2022/10/27 15:47:40;;;;;;;5.75;3.67;;;21.50;99.90;;;;;;10082998;28;20029;-65
2022/10/27 15:52:31;;;;;;;8.10;2.75;;;21.30;99.90;;;;;;10084123;28;20028;-62
2022/10/27 15:57:34;;;;;;;7.18;2.83;;;21.20;99.90;;;;;;10091229;28;20029;-66
2022/10/27 16:02:28;;;;;;;7.53;4.40;;;21.00;99.90;;;;;;10093893;28;20077;-65
2022/10/27 16:07:18;;;;;;;8.52;4.13;;;20.90;99.90;;;;;;10087934;28;20053;-64
2022/10/27 16:12:14;;;;;;;10.77;4.78;;;20.70;99.90;;;;;;10087740;28;20402;-65
2022/10/27 16:17:04;;;;;;;;;;;20.60;99.90;;;;;;10082506;28;20167;-64
2022/10/27 16:21:55;;;;;;;7.60;3.65;;;20.40;99.90;;;;;;10088264;28;20446;-66
2022/10/27 16:26:48;;;;;;;10.82;5.90;;;20.40;99.90;;;;;;10086347;28;20052;-65
2022/10/27 16:31:39;;;;;;;7.90;3.83;;;20.30;99.90;;;;;;10088147;28;20036;-64
2022/10/27 16:36:30;;;;;;;6.88;3.83;;;20.20;99.90;;;;;;10092435;28;20032;-64
2022/10/27 16:41:27;;;;;;;9.93;4.18;;;20.30;99.90;;;;;;10089256;28;20041;-65
2022/10/27 16:46:18;;;;;;;6.20;3.90;;;20.20;99.90;;;;;;10093221;28;20025;-66
2022/10/27 16:51:16;;;;;;;14.82;4.90;;;20.10;99.90;;;;;;10098317;28;20124;-63
2022/10/27 16:56:07;;;;;;;10.82;5.30;;;20.10;99.90;;;;;;10099178;28;20028;-66
2022/10/27 17:01:03;;;;;;;12.48;4.78;;;20.00;99.90;;;;;;10101171;28;20388;-65
2022/10/27 17:05:56;;;;;;;13.40;5.32;;;19.90;99.90;;;;;;10100690;28;20425;-65
2022/10/27 17:10:48;;;;;;;12.07;5.95;;;19.90;99.90;;;;;;10098316;28;20204;-64
2022/10/27 17:15:39;;;;;;;15.25;6.47;;;19.80;99.90;;;;;;10094188;28;20043;-62
2022/10/27 17:20:29;;;;;;;11.00;5.95;;;19.70;99.90;;;;;;10093595;28;20656;-62
2022/10/27 17:25:20;;;;;;;36.05;19.55;;;19.60;99.90;;;;;;10091059;28;20275;-65
2022/10/27 17:30:11;;;;;;;12.88;8.10;;;19.60;99.90;;;;;;10088956;28;20577;-63
2022/10/27 17:35:01;;;;;;;12.48;6.63;;;19.50;99.90;;;;;;10089283;28;20037;-63
2022/10/27 17:39:52;;;;;;;15.55;7.78;;;19.40;99.90;;;;;;10095562;28;20061;-63
2022/10/27 17:44:42;;;;;;;9.32;6.43;;;19.40;99.90;;;;;;10097236;28;20530;-65
2022/10/27 17:49:33;;;;;;;10.82;5.05;;;19.40;99.90;;;;;;10095724;28;20021;-63
2022/10/27 17:54:24;;;;;;;10.63;5.60;;;19.40;99.90;;;;;;10094630;28;20138;-64
2022/10/27 17:59:15;;;;;;;11.07;5.28;;;19.50;99.90;;;;;;10092829;28;20048;-63
2022/10/27 18:04:08;;;;;;;9.18;4.55;;;19.30;99.90;;;;;;10097225;28;20048;-64
2022/10/27 18:09:01;;;;;;;8.55;4.22;;;19.30;99.90;;;;;;10095605;28;20076;-63
2022/10/27 18:13:53;;;;;;;7.35;4.63;;;19.30;99.90;;;;;;10095640;28;20040;-64
2022/10/27 18:18:44;;;;;;;8.55;4.78;;;19.20;99.90;;;;;;10095879;28;20116;-63
2022/10/27 18:23:35;;;;;;;7.35;4.32;;;19.20;99.90;;;;;;10098958;28;20114;-64
2022/10/27 18:28:26;;;;;;;8.73;4.90;;;19.20;99.90;;;;;;10095256;28;20459;-64
2022/10/27 18:33:16;;;;;;;11.60;5.60;;;19.20;99.90;;;;;;10092746;28;20064;-63
2022/10/27 18:38:07;;;;;;;10.15;4.78;;;19.20;99.90;;;;;;10096277;28;20142;-64
2022/10/27 18:42:57;;;;;;;7.47;3.38;;;19.30;99.90;;;;;;10091949;28;20040;-65
2022/10/27 18:47:48;;;;;;;7.95;3.63;;;19.30;99.90;;;;;;10090479;28;20476;-66
2022/10/27 18:52:38;;;;;;;9.05;4.07;;;19.30;99.90;;;;;;10089230;28;20029;-65
2022/10/27 18:57:29;;;;;;;9.38;4.00;;;19.30;99.90;;;;;;10090488;28;20060;-65
2022/10/27 19:02:20;;;;;;;10.18;4.45;;;19.30;99.90;;;;;;10087833;28;20038;-65
2022/10/27 19:07:10;;;;;;;10.65;5.05;;;19.20;99.90;;;;;;10092007;28;20387;-64
2022/10/27 19:12:01;;;;;;;12.77;6.10;;;19.20;99.90;;;;;;10087159;28;20021;-63
2022/10/27 19:16:51;;;;;;;13.02;7.15;;;19.20;99.90;;;;;;10087422;28;20037;-63
2022/10/27 19:21:42;;;;;;;11.80;6.22;;;19.20;99.90;;;;;;10087713;28;20033;-64
2022/10/27 19:26:33;;;;;;;11.98;6.38;;;19.10;99.90;;;;;;10092487;28;20039;-64
2022/10/27 19:31:27;;;;;;;10.35;5.25;;;19.00;99.90;;;;;;10092399;28;20051;-64
2022/10/27 19:36:20;;;;;;;13.75;6.72;;;19.00;99.90;;;;;;10095573;28;20021;-63
2022/10/27 19:41:13;;;;;;;18.25;6.97;;;18.90;99.90;;;;;;10093605;28;20464;-63
2022/10/27 19:46:05;;;;;;;13.38;7.68;;;18.90;99.90;;;;;;10092289;28;20326;-63
2022/10/27 19:50:56;;;;;;;19.20;8.25;;;18.80;99.90;;;;;;10092657;28;20388;-63
2022/10/27 19:55:47;;;;;;;16.48;9.13;;;18.70;99.90;;;;;;10092111;28;20021;-64
2022/10/27 20:00:37;;;;;;;14.68;8.23;;;18.70;99.90;;;;;;10091265;28;20328;-64
2022/10/27 20:05:28;;;;;;;13.93;8.25;;;18.60;99.90;;;;;;10090658;28;20048;-64
2022/10/27 20:10:20;;;;;;;12.00;7.00;;;18.60;99.90;;;;;;10088893;28;20305;-64
2022/10/27 20:15:11;;;;;;;12.45;6.75;;;18.50;99.90;;;;;;10088153;28;20029;-65
2022/10/27 20:20:02;;;;;;;15.15;7.55;;;18.50;99.90;;;;;;10088629;28;20483;-65
2022/10/27 20:24:52;;;;;;;12.50;6.75;;;18.50;99.90;;;;;;10085136;28;20041;-63
2022/10/27 20:29:43;;;;;;;10.23;6.50;;;18.40;99.90;;;;;;10085143;28;20390;-64
2022/10/27 20:34:33;;;;;;;15.07;8.25;;;18.40;99.90;;;;;;10087562;28;20036;-64
2022/10/27 20:39:24;;;;;;;13.23;6.15;;;18.40;99.90;;;;;;10086225;28;20033;-65
2022/10/27 20:44:15;;;;;;;11.40;5.80;;;18.40;99.90;;;;;;10086286;28;20457;-65
2022/10/27 20:49:06;;;;;;;12.05;6.07;;;18.40;99.90;;;;;;10088421;28;20033;-64
2022/10/27 20:53:58;;;;;;;8.60;4.88;;;18.40;99.90;;;;;;10082978;28;20025;-63
2022/10/27 20:58:48;;;;;;;11.38;5.45;;;18.50;99.90;;;;;;10085296;28;20082;-64
2022/10/27 21:03:39;;;;;;;11.43;4.15;;;18.50;99.90;;;;;;10084577;28;20041;-63
2022/10/27 21:08:30;;;;;;;9.32;4.90;;;18.50;99.90;;;;;;10089125;28;20045;-63
2022/10/27 21:13:21;;;;;;;7.78;4.72;;;18.50;99.90;;;;;;10089545;28;20032;-63
2022/10/27 21:18:11;;;;;;;8.82;5.05;;;18.40;99.90;;;;;;10090908;28;20064;-64
2022/10/27 21:23:02;;;;;;;10.63;4.63;;;18.40;99.90;;;;;;10104154;28;20040;-63
2022/10/27 21:27:54;;;;;;;8.77;5.05;;;18.40;99.90;;;;;;10088210;28;20033;-63
2022/10/27 21:32:49;;;;;;;8.82;4.18;;;18.40;99.90;;;;;;10088855;28;20064;-64
2022/10/27 21:37:40;;;;;;;7.20;3.75;;;18.50;99.90;;;;;;10098532;28;20021;-63
2022/10/27 21:42:30;;;;;;;8.75;3.85;;;18.40;99.90;;;;;;10093384;28;20419;-64
2022/10/27 21:47:21;;;;;;;11.43;5.03;;;18.40;99.90;;;;;;10090893;28;20036;-63
2022/10/27 21:52:12;;;;;;;6.57;3.50;;;18.40;99.90;;;;;;10090204;28;20566;-63
2022/10/27 21:57:02;;;;;;;6.45;3.83;;;18.30;99.90;;;;;;10090586;28;20025;-62
2022/10/27 22:01:53;;;;;;;5.60;3.40;;;18.30;99.90;;;;;;10091345;28;20398;-63
2022/10/27 22:06:43;;;;;;;9.80;3.92;;;18.30;99.90;;;;;;10094194;28;20052;-64
2022/10/27 22:11:35;;;;;;;7.50;4.63;;;18.30;99.90;;;;;;10090073;28;20036;-64
2022/10/27 22:16:27;;;;;;;9.43;3.80;;;18.40;99.90;;;;;;10088889;28;20040;-63
2022/10/27 22:21:18;;;;;;;12.27;4.55;;;18.30;99.90;;;;;;10090338;28;20029;-64
2022/10/27 22:26:12;;;;;;;8.18;4.13;;;18.40;99.90;;;;;;10090605;28;20052;-64
2022/10/27 22:31:07;;;;;;;9.43;3.88;;;18.30;99.90;;;;;;10089219;28;20021;-64
2022/10/27 22:36:07;;;;;;;9.88;4.05;;;18.30;99.90;;;;;;10089927;28;20060;-63
2022/10/27 22:41:03;;;;;;;10.85;4.28;;;18.30;99.90;;;;;;10087320;28;20039;-64
2022/10/27 22:45:54;;;;;;;10.07;3.90;;;18.20;99.90;;;;;;10089587;28;20036;-64
2022/10/27 22:50:44;;;;;;;8.18;4.15;;;18.10;99.90;;;;;;10087531;28;20032;-63
2022/10/27 22:55:35;;;;;;;13.20;4.07;;;18.00;99.90;;;;;;10093624;28;20395;-64
2022/10/27 23:00:26;;;;;;;9.52;3.72;;;18.00;99.90;;;;;;10093791;28;20013;-64
2022/10/27 23:05:17;;;;;;;13.63;3.83;;;18.00;99.90;;;;;;10095865;28;20191;-64
2022/10/27 23:10:08;;;;;;;10.98;3.67;;;18.00;99.90;;;;;;10090757;28;20521;-63
2022/10/27 23:14:58;;;;;;;15.23;4.88;;;17.90;99.90;;;;;;10092878;28;20063;-64
2022/10/27 23:19:49;;;;;;;7.93;3.80;;;17.90;99.90;;;;;;10086853;28;20403;-63
2022/10/27 23:24:40;;;;;;;9.32;4.70;;;17.90;99.90;;;;;;10084033;28;20032;-63
2022/10/27 23:29:30;;;;;;;9.07;4.70;;;17.90;99.90;;;;;;10090233;28;20390;-64
2022/10/27 23:34:21;;;;;;;10.55;4.75;;;17.90;99.90;;;;;;10088314;28;20027;-63
2022/10/27 23:39:12;;;;;;;10.80;4.97;;;17.90;99.90;;;;;;10079876;28;20061;-63
2022/10/27 23:44:02;;;;;;;10.85;4.47;;;17.80;99.90;;;;;;10064596;28;20045;-64
2022/10/27 23:48:53;;;;;;;10.18;4.15;;;17.80;99.90;;;;;;10094860;28;20017;-64
2022/10/27 23:53:44;;;;;;;7.75;3.78;;;17.90;99.90;;;;;;10095996;28;20084;-64
2022/10/27 23:58:36;;;;;;;7.68;3.90;;;17.90;99.90;;;;;;10097348;28;20040;-63
